createdAt,value
2018-06-30T00:01:42.784Z,13.23
2018-06-30T00:04:17.196Z,8.60
2018-06-30T00:06:51.678Z,8.67
2018-06-30T00:09:26.296Z,10.00
2018-06-30T00:12:00.833Z,9.20
2018-06-30T00:14:35.324Z,8.70
2018-06-30T00:17:10.034Z,7.77
2018-06-30T00:19:44.567Z,10.83
2018-06-30T00:22:19.379Z,7.47
2018-06-30T00:24:53.933Z,9.30
2018-06-30T00:27:28.604Z,12.10
2018-06-30T00:30:03.096Z,11.07
2018-06-30T00:32:37.623Z,8.60
2018-06-30T00:35:12.169Z,10.77
2018-06-30T00:37:46.710Z,9.90
2018-06-30T00:40:21.284Z,10.63
2018-06-30T00:42:55.867Z,7.77
2018-06-30T00:45:30.513Z,10.80
2018-06-30T00:48:05.220Z,9.73
2018-06-30T00:50:39.708Z,9.93
2018-06-30T00:53:14.074Z,8.00
2018-06-30T00:55:48.462Z,12.63
2018-06-30T00:58:22.886Z,13.03
2018-06-30T01:00:57.517Z,8.37
2018-06-30T01:03:32.132Z,9.63
2018-06-30T01:06:06.500Z,10.77
2018-06-30T01:08:40.917Z,8.27
2018-06-30T01:11:15.511Z,11.27
2018-06-30T01:13:50.006Z,15.47
2018-06-30T01:16:24.903Z,10.23
2018-06-30T01:18:59.439Z,12.90
2018-06-30T01:21:33.834Z,13.23
2018-06-30T01:24:08.910Z,14.03
2018-06-30T01:26:43.614Z,10.70
2018-06-30T01:29:18.232Z,14.77
2018-06-30T01:31:52.898Z,12.50
2018-06-30T01:34:27.561Z,13.03
2018-06-30T01:37:02.124Z,11.90
2018-06-30T01:39:36.683Z,12.43
2018-06-30T01:42:11.217Z,16.07
2018-06-30T01:44:45.693Z,13.43
2018-06-30T01:47:20.480Z,13.40
2018-06-30T01:49:55.007Z,11.63
2018-06-30T01:52:29.632Z,12.27
2018-06-30T01:55:04.276Z,14.83
2018-06-30T01:57:39.129Z,13.63
2018-06-30T02:00:13.732Z,12.90
2018-06-30T02:02:48.217Z,13.70
2018-06-30T02:05:22.657Z,9.93
2018-06-30T02:07:57.357Z,12.23
2018-06-30T02:10:31.983Z,13.30
2018-06-30T02:13:06.701Z,13.13
2018-06-30T02:15:41.165Z,15.10
2018-06-30T02:18:15.809Z,12.67
2018-06-30T02:20:50.355Z,19.40
2018-06-30T02:23:24.733Z,10.53
2018-06-30T02:25:59.197Z,13.00
2018-06-30T02:28:33.656Z,16.27
2018-06-30T02:31:08.050Z,16.03
2018-06-30T02:33:42.669Z,13.00
2018-06-30T02:36:17.091Z,12.93
2018-06-30T02:38:51.523Z,14.33
2018-06-30T02:41:25.992Z,12.60
2018-06-30T02:44:00.614Z,18.97
2018-06-30T02:46:35.204Z,14.13
2018-06-30T02:49:09.678Z,13.20
2018-06-30T02:51:44.112Z,15.43
2018-06-30T02:54:18.510Z,13.40
2018-06-30T02:56:53.203Z,12.10
2018-06-30T02:59:27.908Z,13.20
2018-06-30T03:02:02.396Z,13.60
2018-06-30T03:04:37.053Z,13.73
2018-06-30T03:07:11.716Z,14.17
2018-06-30T03:09:46.312Z,13.50
2018-06-30T03:12:20.899Z,13.90
2018-06-30T03:14:55.457Z,16.43
2018-06-30T03:17:29.915Z,21.27
2018-06-30T03:20:04.863Z,16.30
2018-06-30T03:22:39.341Z,16.40
2018-06-30T03:25:13.820Z,16.97
2018-06-30T03:27:48.405Z,22.37
2018-06-30T03:30:23.044Z,16.17
2018-06-30T03:32:57.878Z,15.07
2018-06-30T03:35:32.540Z,13.43
2018-06-30T03:38:07.022Z,13.00
2018-06-30T03:40:41.593Z,12.87
2018-06-30T03:43:16.317Z,15.53
2018-06-30T03:45:50.822Z,15.13
2018-06-30T03:48:25.420Z,18.97
2018-06-30T03:51:00.104Z,15.90
2018-06-30T03:53:34.574Z,16.00
2018-06-30T03:56:09.176Z,15.83
2018-06-30T03:58:43.555Z,12.77
2018-06-30T04:01:18.141Z,10.77
2018-06-30T04:03:52.754Z,17.17
2018-06-30T04:06:27.192Z,15.20
2018-06-30T04:09:01.792Z,14.87
2018-06-30T04:11:36.531Z,14.43
2018-06-30T04:14:11.007Z,13.60
2018-06-30T04:16:45.447Z,15.13
2018-06-30T04:19:20.135Z,15.13
2018-06-30T04:21:54.535Z,13.03
2018-06-30T04:24:29.045Z,15.93
2018-06-30T04:27:03.602Z,14.70
2018-06-30T04:29:38.109Z,14.40
2018-06-30T04:32:12.505Z,15.23
2018-06-30T04:34:47.100Z,12.47
2018-06-30T04:37:21.538Z,14.13
2018-06-30T04:39:56.305Z,12.07
2018-06-30T04:42:30.723Z,14.63
2018-06-30T04:45:05.472Z,12.13
2018-06-30T04:47:39.932Z,12.90
2018-06-30T04:50:14.589Z,14.27
2018-06-30T04:52:49.140Z,13.90
2018-06-30T04:55:23.705Z,12.37
2018-06-30T04:57:58.147Z,14.30
2018-06-30T05:00:32.572Z,13.10
2018-06-30T05:03:07.249Z,12.83
2018-06-30T05:05:41.797Z,10.77
2018-06-30T05:08:16.288Z,11.50
2018-06-30T05:10:50.678Z,13.80
2018-06-30T05:13:25.105Z,12.23
2018-06-30T05:15:59.704Z,13.87
2018-06-30T05:18:34.198Z,14.10
2018-06-30T05:21:08.742Z,9.83
2018-06-30T05:23:43.227Z,13.37
2018-06-30T05:26:17.837Z,13.50
2018-06-30T05:28:52.315Z,12.77
2018-06-30T05:31:26.688Z,7.60
2018-06-30T05:34:01.201Z,9.17
2018-06-30T05:36:35.776Z,11.10
2018-06-30T05:39:10.402Z,10.97
2018-06-30T05:41:44.929Z,9.23
2018-06-30T05:44:19.410Z,13.63
2018-06-30T05:46:53.885Z,9.27
2018-06-30T05:49:28.356Z,9.17
2018-06-30T05:52:02.892Z,7.47
2018-06-30T05:54:37.481Z,12.27
2018-06-30T05:57:12.065Z,9.43
2018-06-30T05:59:46.458Z,11.20
2018-06-30T06:02:20.922Z,10.73
2018-06-30T06:04:55.572Z,10.87
2018-06-30T06:07:30.154Z,8.37
2018-06-30T06:10:04.786Z,11.67
2018-06-30T06:12:39.335Z,10.53
2018-06-30T06:15:13.938Z,10.83
2018-06-30T06:17:48.465Z,8.43
2018-06-30T06:20:22.912Z,8.77
2018-06-30T06:22:57.322Z,11.53
2018-06-30T06:25:32.051Z,9.40
2018-06-30T06:28:06.966Z,11.07
2018-06-30T06:30:41.425Z,7.73
2018-06-30T06:33:15.828Z,6.23
2018-06-30T06:35:50.189Z,14.20
2018-06-30T06:38:24.673Z,7.43
2018-06-30T06:40:59.260Z,8.60
2018-06-30T06:43:33.644Z,10.17
2018-06-30T06:46:08.247Z,7.30
2018-06-30T06:48:42.702Z,5.90
2018-06-30T06:51:17.152Z,7.30
2018-06-30T06:53:51.626Z,7.33
2018-06-30T06:56:26.090Z,6.20
2018-06-30T06:59:00.643Z,4.80
2018-06-30T07:01:35.077Z,6.93
2018-06-30T07:04:09.400Z,6.10
2018-06-30T07:06:43.898Z,6.83
2018-06-30T07:09:18.423Z,7.43
2018-06-30T07:11:54.178Z,4.97
2018-06-30T07:14:28.848Z,9.27
2018-06-30T07:17:03.417Z,6.13
2018-06-30T07:19:37.882Z,5.37
2018-06-30T07:22:12.333Z,7.00
2018-06-30T07:24:46.803Z,6.70
2018-06-30T07:27:21.144Z,6.03
2018-06-30T07:29:55.552Z,4.97
2018-06-30T07:32:30.073Z,6.10
2018-06-30T07:35:05.015Z,6.57
2018-06-30T07:37:39.342Z,8.03
2018-06-30T07:40:13.931Z,6.07
2018-06-30T07:42:48.303Z,6.00
2018-06-30T07:45:23.282Z,3.93
2018-06-30T07:47:57.685Z,6.20
2018-06-30T07:50:32.011Z,5.47
2018-06-30T07:53:06.560Z,5.67
2018-06-30T07:55:41.125Z,4.43
2018-06-30T07:58:15.520Z,5.17
2018-06-30T08:00:50.033Z,5.83
2018-06-30T08:03:24.364Z,6.03
2018-06-30T08:05:58.772Z,6.10
2018-06-30T08:08:33.279Z,6.63
2018-06-30T08:11:07.724Z,5.63
2018-06-30T08:13:42.116Z,4.47
2018-06-30T08:16:16.804Z,3.57
2018-06-30T08:18:51.356Z,6.17
2018-06-30T08:21:26.090Z,3.33
2018-06-30T08:24:00.619Z,5.07
2018-06-30T08:26:35.161Z,5.13
2018-06-30T08:29:09.777Z,3.37
2018-06-30T08:31:44.249Z,6.33
2018-06-30T08:34:18.688Z,6.87
2018-06-30T08:36:53.200Z,4.13
2018-06-30T08:39:27.645Z,5.93
2018-06-30T08:42:02.142Z,6.20
2018-06-30T08:44:36.730Z,2.80
2018-06-30T08:47:11.038Z,5.47
2018-06-30T08:49:45.452Z,4.83
2018-06-30T08:52:19.924Z,3.47
2018-06-30T08:54:54.728Z,6.37
2018-06-30T08:57:29.245Z,6.33
2018-06-30T09:00:05.071Z,6.37
2018-06-30T09:02:39.539Z,6.13
2018-06-30T09:05:13.926Z,3.70
2018-06-30T09:07:48.341Z,5.10
2018-06-30T09:10:22.833Z,7.43
2018-06-30T09:12:57.391Z,5.30
2018-06-30T09:15:31.791Z,6.77
2018-06-30T09:18:06.628Z,18.73
2018-06-30T09:20:41.076Z,8.23
2018-06-30T09:23:15.496Z,30.17
2018-06-30T09:25:49.840Z,7.63
2018-06-30T09:28:24.404Z,40.37
2018-06-30T09:30:58.992Z,17.07
2018-06-30T09:33:33.484Z,10.80
2018-06-30T09:36:08.190Z,5.57
2018-06-30T09:38:42.769Z,6.30
2018-06-30T09:41:17.260Z,7.63
2018-06-30T09:43:52.118Z,7.37
2018-06-30T09:46:26.587Z,5.73
2018-06-30T09:49:00.987Z,7.57
2018-06-30T09:51:35.647Z,5.47
2018-06-30T09:54:10.209Z,5.27
2018-06-30T09:56:44.765Z,5.83
2018-06-30T09:59:19.142Z,7.30
2018-06-30T10:01:53.564Z,4.77
2018-06-30T10:04:28.244Z,6.83
2018-06-30T10:07:02.623Z,7.33
2018-06-30T10:09:37.144Z,5.43
2018-06-30T10:12:11.528Z,4.70
2018-06-30T10:14:45.982Z,4.13
2018-06-30T10:17:20.227Z,5.83
2018-06-30T10:19:54.471Z,6.53
2018-06-30T10:22:28.704Z,4.17
2018-06-30T10:25:03.107Z,8.53
2018-06-30T10:27:37.472Z,4.47
2018-06-30T10:30:11.769Z,7.10
2018-06-30T10:32:46.043Z,5.87
2018-06-30T10:35:20.476Z,4.17
2018-06-30T10:37:54.791Z,6.13
2018-06-30T10:40:29.201Z,6.67
2018-06-30T10:43:03.481Z,3.93
2018-06-30T10:45:37.851Z,7.43
2018-06-30T10:48:12.241Z,3.85
2018-06-30T10:50:46.672Z,4.70
2018-06-30T10:53:20.979Z,4.83
2018-06-30T10:55:55.438Z,4.08
2018-06-30T10:58:29.815Z,5.10
2018-06-30T11:01:04.187Z,5.43
2018-06-30T11:03:38.589Z,5.17
2018-06-30T11:06:13.008Z,4.20
2018-06-30T11:08:47.431Z,6.90
2018-06-30T11:11:21.739Z,7.23
2018-06-30T11:13:56.167Z,5.77
2018-06-30T11:16:30.399Z,6.70
2018-06-30T11:19:04.883Z,4.47
2018-06-30T11:21:39.096Z,3.77
2018-06-30T11:24:13.448Z,6.63
2018-06-30T11:26:47.915Z,4.50
2018-06-30T11:29:22.713Z,6.70
2018-06-30T11:31:56.888Z,5.70
2018-06-30T11:34:31.108Z,3.60
2018-06-30T11:37:05.464Z,3.43
2018-06-30T11:39:39.701Z,3.27
2018-06-30T11:42:13.954Z,6.53
2018-06-30T11:44:48.363Z,8.50
2018-06-30T11:47:22.732Z,5.90
2018-06-30T11:49:57.118Z,4.97
2018-06-30T11:52:31.388Z,4.30
2018-06-30T11:55:06.072Z,5.00
2018-06-30T11:57:40.483Z,5.17
2018-06-30T12:00:14.931Z,4.07
2018-06-30T12:02:49.211Z,4.63
2018-06-30T12:05:23.605Z,4.93
2018-06-30T12:07:57.891Z,5.17
2018-06-30T12:10:32.307Z,6.83
2018-06-30T12:13:06.807Z,4.30
2018-06-30T12:15:41.227Z,3.67
2018-06-30T12:18:15.443Z,2.90
2018-06-30T12:20:49.875Z,4.57
2018-06-30T12:23:24.419Z,5.63
2018-06-30T12:25:58.830Z,4.57
2018-06-30T12:28:33.218Z,6.80
2018-06-30T12:31:07.612Z,3.73
2018-06-30T12:33:41.981Z,3.57
2018-06-30T12:36:16.341Z,3.47
2018-06-30T12:38:50.860Z,8.50
2018-06-30T12:41:25.341Z,5.83
2018-06-30T12:43:59.750Z,5.27
2018-06-30T12:46:34.484Z,4.13
2018-06-30T12:49:09.154Z,5.23
2018-06-30T12:51:43.688Z,4.03
2018-06-30T12:54:18.150Z,4.03
2018-06-30T12:56:52.525Z,5.57
2018-06-30T12:59:26.999Z,4.07
2018-06-30T13:02:01.582Z,5.20
2018-06-30T13:04:36.178Z,5.17
2018-06-30T13:07:10.739Z,6.00
2018-06-30T13:09:45.249Z,4.97
2018-06-30T13:12:19.661Z,5.30
2018-06-30T13:14:54.098Z,5.80
2018-06-30T13:17:28.701Z,3.93
2018-06-30T13:20:03.346Z,5.23
2018-06-30T13:22:37.900Z,8.30
2018-06-30T13:25:12.312Z,3.20
2018-06-30T13:27:46.799Z,6.57
2018-06-30T13:30:21.280Z,4.17
2018-06-30T13:32:55.642Z,5.90
2018-06-30T13:35:30.120Z,5.50
2018-06-30T13:38:04.634Z,4.47
2018-06-30T13:40:39.066Z,1.90
2018-06-30T13:43:13.711Z,3.13
2018-06-30T13:45:48.067Z,3.47
2018-06-30T13:48:22.453Z,4.57
2018-06-30T13:50:56.830Z,2.87
2018-06-30T13:53:31.222Z,6.83
2018-06-30T13:56:05.944Z,3.00
2018-06-30T13:58:40.547Z,3.17
2018-06-30T14:01:15.017Z,3.40
2018-06-30T14:03:49.749Z,3.33
2018-06-30T14:06:24.285Z,3.27
2018-06-30T14:08:58.750Z,4.97
2018-06-30T14:11:33.355Z,4.17
2018-06-30T14:14:08.346Z,3.43
2018-06-30T14:16:42.768Z,2.27
2018-06-30T14:19:17.264Z,4.93
2018-06-30T14:21:51.776Z,2.17
2018-06-30T14:24:26.327Z,3.27
2018-06-30T14:27:00.681Z,3.27
2018-06-30T14:29:35.145Z,2.00
2018-06-30T14:32:09.647Z,5.03
2018-06-30T14:34:44.225Z,3.10
2018-06-30T14:37:18.635Z,2.50
2018-06-30T14:39:53.188Z,2.40
2018-06-30T14:42:27.752Z,3.60
2018-06-30T14:45:02.328Z,2.50
2018-06-30T14:47:36.797Z,3.17
2018-06-30T14:50:11.168Z,2.57
2018-06-30T14:52:45.664Z,2.80
2018-06-30T14:55:20.232Z,3.43
2018-06-30T14:57:54.641Z,2.07
2018-06-30T15:00:28.951Z,3.50
2018-06-30T15:03:03.508Z,2.97
2018-06-30T15:05:38.125Z,2.17
2018-06-30T15:08:12.612Z,4.43
2018-06-30T15:10:47.254Z,1.83
2018-06-30T15:13:21.697Z,2.83
2018-06-30T15:15:56.262Z,2.70
2018-06-30T15:18:30.768Z,3.83
2018-06-30T15:21:05.165Z,1.97
2018-06-30T15:23:39.512Z,2.73
2018-06-30T15:26:14.064Z,4.60
2018-06-30T15:28:48.600Z,6.10
2018-06-30T15:31:23.033Z,2.53
2018-06-30T15:33:57.663Z,5.77
2018-06-30T15:36:32.120Z,4.73
2018-06-30T15:39:08.720Z,3.30
2018-06-30T15:41:43.176Z,2.03
2018-06-30T15:44:17.724Z,3.50
2018-06-30T15:46:52.474Z,3.73
2018-06-30T15:49:27.061Z,2.57
2018-06-30T15:52:01.665Z,3.60
2018-06-30T15:54:36.388Z,4.23
2018-06-30T15:57:10.829Z,3.57
2018-06-30T15:59:45.183Z,4.80
2018-06-30T16:02:19.680Z,2.90
2018-06-30T16:04:54.063Z,5.50
2018-06-30T16:07:28.731Z,3.67
2018-06-30T16:10:03.355Z,2.90
2018-06-30T16:12:37.779Z,3.40
2018-06-30T16:15:12.392Z,3.43
2018-06-30T16:17:47.001Z,3.00
2018-06-30T16:20:21.711Z,3.33
2018-06-30T16:22:56.215Z,1.90
2018-06-30T16:25:30.805Z,11.77
2018-06-30T16:28:05.747Z,4.13
2018-06-30T16:30:40.151Z,5.63
2018-06-30T16:33:14.645Z,1.40
2018-06-30T16:35:49.160Z,3.93
2018-06-30T16:38:23.698Z,1.20
2018-06-30T16:40:58.068Z,6.17
2018-06-30T16:43:32.445Z,1.30
2018-06-30T16:46:06.929Z,4.27
2018-06-30T16:48:41.524Z,2.40
2018-06-30T16:51:16.102Z,2.53
2018-06-30T16:53:50.880Z,3.10
2018-06-30T16:56:25.365Z,2.27
2018-06-30T16:59:00.001Z,1.47
2018-06-30T17:01:34.710Z,1.47
2018-06-30T17:04:09.451Z,1.50
2018-06-30T17:06:43.976Z,2.20
2018-06-30T17:09:18.628Z,3.47
2018-06-30T17:11:53.233Z,2.93
2018-06-30T17:14:27.644Z,1.80
2018-06-30T17:17:02.069Z,2.70
2018-06-30T17:19:36.547Z,2.83
2018-06-30T17:22:11.056Z,2.03
2018-06-30T17:24:45.420Z,2.40
2018-06-30T17:27:19.845Z,1.20
2018-06-30T17:29:54.436Z,4.07
2018-06-30T17:32:29.156Z,4.00
2018-06-30T17:35:03.734Z,2.97
2018-06-30T17:37:38.331Z,0.80
2018-06-30T17:40:13.041Z,0.93
2018-06-30T17:42:47.574Z,2.20
2018-06-30T17:45:22.169Z,1.03
2018-06-30T17:47:56.551Z,2.63
2018-06-30T17:50:31.201Z,1.03
2018-06-30T17:53:05.813Z,1.90
2018-06-30T17:55:40.452Z,1.13
2018-06-30T17:58:14.940Z,1.40
2018-06-30T18:00:49.463Z,1.70
2018-06-30T18:03:23.901Z,2.30
2018-06-30T18:05:58.626Z,1.03
2018-06-30T18:08:33.152Z,0.80
2018-06-30T18:11:07.761Z,1.40
2018-06-30T18:13:42.257Z,1.57
2018-06-30T18:16:16.636Z,2.20
2018-06-30T18:18:51.161Z,2.17
2018-06-30T18:21:25.744Z,2.63
2018-06-30T18:24:00.174Z,2.53
2018-06-30T18:26:34.708Z,3.87
2018-06-30T18:29:09.177Z,0.80
2018-06-30T18:31:43.568Z,1.80
2018-06-30T18:34:17.920Z,1.03
2018-06-30T18:36:52.404Z,1.90
2018-06-30T18:39:26.976Z,1.70
2018-06-30T18:42:01.532Z,2.53
2018-06-30T18:44:36.029Z,0.80
2018-06-30T18:47:10.604Z,1.43
2018-06-30T18:49:45.114Z,0.90
2018-06-30T18:52:19.732Z,2.10
2018-06-30T18:54:54.481Z,2.00
2018-06-30T18:57:29.172Z,1.77
2018-06-30T19:00:03.591Z,0.60
2018-06-30T19:02:38.141Z,2.93
2018-06-30T19:05:12.746Z,1.53
2018-06-30T19:07:47.486Z,2.07
2018-06-30T19:10:22.010Z,2.30
2018-06-30T19:12:56.453Z,1.43
2018-06-30T19:15:30.974Z,0.60
2018-06-30T19:18:05.874Z,2.17
2018-06-30T19:20:40.423Z,1.00
2018-06-30T19:23:15.037Z,6.03
2018-06-30T19:25:49.649Z,2.30
2018-06-30T19:28:24.273Z,1.63
2018-06-30T19:30:58.811Z,0.67
2018-06-30T19:33:33.258Z,0.80
2018-06-30T19:36:07.981Z,2.00
2018-06-30T19:38:42.532Z,0.80
2018-06-30T19:41:17.180Z,1.47
2018-06-30T19:43:51.796Z,1.00
2018-06-30T19:46:26.365Z,2.80
2018-06-30T19:49:00.968Z,0.83
2018-06-30T19:51:35.679Z,1.67
2018-06-30T19:54:10.195Z,3.27
2018-06-30T19:56:44.596Z,0.70
2018-06-30T19:59:19.084Z,1.60
2018-06-30T20:01:53.745Z,1.57
2018-06-30T20:04:28.332Z,2.20
2018-06-30T20:07:02.826Z,1.00
2018-06-30T20:09:37.324Z,2.33
2018-06-30T20:12:11.831Z,1.20
2018-06-30T20:14:46.530Z,1.63
2018-06-30T20:17:21.054Z,1.27
2018-06-30T20:19:55.706Z,0.70
2018-06-30T20:22:30.452Z,1.83
2018-06-30T20:25:05.371Z,1.97
2018-06-30T20:27:39.862Z,2.20
2018-06-30T20:30:14.661Z,0.80
2018-06-30T20:32:49.145Z,8.80
2018-06-30T20:35:23.766Z,2.00
2018-06-30T20:37:58.292Z,1.83
2018-06-30T20:40:32.713Z,1.60
2018-06-30T20:43:07.380Z,2.37
2018-06-30T20:45:41.901Z,0.90
2018-06-30T20:48:17.202Z,1.30
2018-06-30T20:50:51.869Z,1.47
2018-06-30T20:53:26.448Z,2.50
2018-06-30T20:56:00.881Z,1.53
2018-06-30T20:58:35.353Z,0.97
2018-06-30T21:01:09.833Z,2.87
2018-06-30T21:03:44.438Z,3.87
2018-06-30T21:06:18.717Z,3.00
2018-06-30T21:08:53.109Z,7.13
2018-06-30T21:11:27.500Z,0.93
2018-06-30T21:14:01.944Z,6.63
2018-06-30T21:16:36.578Z,2.13
2018-06-30T21:19:12.029Z,4.10
2018-06-30T21:21:46.640Z,3.07
2018-06-30T21:24:21.073Z,1.53
2018-06-30T21:26:55.518Z,1.23
2018-06-30T21:29:29.994Z,3.10
2018-06-30T21:32:04.396Z,1.60
2018-06-30T21:34:39.118Z,1.30
2018-06-30T21:37:13.788Z,1.63
2018-06-30T21:39:48.472Z,1.83
2018-06-30T21:42:23.182Z,1.63
2018-06-30T21:44:57.729Z,2.40
2018-06-30T21:47:32.403Z,2.03
2018-06-30T21:50:06.952Z,1.90
2018-06-30T21:52:41.587Z,1.70
2018-06-30T21:55:16.241Z,1.27
2018-06-30T21:57:50.755Z,5.03
2018-06-30T22:00:48.522Z,2.03
2018-06-30T22:03:25.281Z,4.47
2018-06-30T22:05:59.689Z,3.23
2018-06-30T22:08:34.189Z,0.87
2018-06-30T22:11:08.902Z,6.97
2018-06-30T22:13:43.328Z,2.40
2018-06-30T22:16:18.030Z,4.10
2018-06-30T22:18:52.601Z,2.97
2018-06-30T22:21:27.092Z,3.33
2018-06-30T22:24:01.541Z,1.10
2018-06-30T22:26:36.050Z,1.37
2018-06-30T22:29:10.435Z,0.60
2018-06-30T22:31:44.986Z,2.23
2018-06-30T22:34:19.466Z,1.60
2018-06-30T22:36:54.028Z,0.77
2018-06-30T22:39:39.979Z,5.10
2018-06-30T22:42:14.509Z,0.97
2018-06-30T22:44:49.168Z,1.87
2018-06-30T22:47:23.719Z,2.50
2018-06-30T22:49:59.037Z,4.33
2018-06-30T22:52:33.692Z,2.00
2018-06-30T22:55:08.407Z,1.90
2018-06-30T22:57:42.998Z,1.60
2018-06-30T23:00:18.734Z,2.80
2018-06-30T23:02:53.309Z,2.03
2018-06-30T23:05:27.910Z,4.53
2018-06-30T23:08:02.502Z,3.17
2018-06-30T23:10:37.218Z,3.43
2018-06-30T23:13:11.774Z,1.97
2018-06-30T23:15:46.395Z,4.67
2018-06-30T23:18:20.859Z,1.90
2018-06-30T23:20:55.310Z,3.73
2018-06-30T23:23:29.874Z,2.77
2018-06-30T23:26:04.539Z,3.83
2018-06-30T23:28:39.015Z,4.13
2018-06-30T23:31:13.580Z,2.30
2018-06-30T23:33:48.225Z,4.37
2018-06-30T23:36:22.729Z,2.83
2018-06-30T23:38:57.448Z,4.37
2018-06-30T23:41:31.976Z,2.20
2018-06-30T23:44:06.398Z,4.27
2018-06-30T23:46:41.023Z,3.30
2018-06-30T23:49:15.412Z,2.90
2018-06-30T23:51:49.861Z,5.50
2018-06-30T23:54:24.453Z,3.10
2018-06-30T23:56:58.932Z,3.17
2018-06-30T23:59:33.378Z,3.57
